sensor_id;sensor_type;location;lat;lon;timestamp;P1;durP1;ratioP1;P2;durP2;ratioP2
14141;SDS011;7151;52.246;4.820;2023-05-14T00:02:17;6.87;;;4.40;;
14141;SDS011;7151;52.246;4.820;2023-05-14T00:04:43;7.00;;;4.77;;
14141;SDS011;7151;52.246;4.820;2023-05-14T00:07:08;7.17;;;4.90;;
14141;SDS011;7151;52.246;4.820;2023-05-14T00:09:36;8.20;;;5.53;;
14141;SDS011;7151;52.246;4.820;2023-05-14T00:12:02;6.70;;;5.13;;
14141;SDS011;7151;52.246;4.820;2023-05-14T00:14:28;6.30;;;4.87;;
14141;SDS011;7151;52.246;4.820;2023-05-14T00:16:53;5.73;;;4.20;;
14141;SDS011;7151;52.246;4.820;2023-05-14T00:19:19;7.37;;;4.67;;
14141;SDS011;7151;52.246;4.820;2023-05-14T00:21:45;6.47;;;5.17;;
14141;SDS011;7151;52.246;4.820;2023-05-14T00:24:11;10.77;;;5.37;;
14141;SDS011;7151;52.246;4.820;2023-05-14T00:26:37;5.63;;;4.30;;
14141;SDS011;7151;52.246;4.820;2023-05-14T00:29:02;6.70;;;5.07;;
14141;SDS011;7151;52.246;4.820;2023-05-14T00:31:28;7.83;;;5.00;;
14141;SDS011;7151;52.246;4.820;2023-05-14T00:33:54;5.63;;;4.70;;
14141;SDS011;7151;52.246;4.820;2023-05-14T00:36:19;7.23;;;4.60;;
14141;SDS011;7151;52.246;4.820;2023-05-14T00:38:45;6.20;;;4.43;;
14141;SDS011;7151;52.246;4.820;2023-05-14T00:41:10;14.23;;;5.10;;
14141;SDS011;7151;52.246;4.820;2023-05-14T00:43:36;5.80;;;4.77;;
14141;SDS011;7151;52.246;4.820;2023-05-14T00:46:01;8.57;;;5.20;;
14141;SDS011;7151;52.246;4.820;2023-05-14T00:48:27;7.00;;;5.50;;
14141;SDS011;7151;52.246;4.820;2023-05-14T00:50:53;8.63;;;5.30;;
14141;SDS011;7151;52.246;4.820;2023-05-14T00:53:19;9.37;;;5.47;;
14141;SDS011;7151;52.246;4.820;2023-05-14T00:55:45;7.33;;;5.30;;
14141;SDS011;7151;52.246;4.820;2023-05-14T00:58:12;8.97;;;5.57;;
14141;SDS011;7151;52.246;4.820;2023-05-14T01:00:38;7.00;;;5.67;;
14141;SDS011;7151;52.246;4.820;2023-05-14T01:03:05;9.07;;;5.37;;
14141;SDS011;7151;52.246;4.820;2023-05-14T01:08:24;10.17;;;5.43;;
14141;SDS011;7151;52.246;4.820;2023-05-14T01:11:21;10.63;;;5.73;;
14141;SDS011;7151;52.246;4.820;2023-05-14T01:14:13;7.90;;;4.83;;
14141;SDS011;7151;52.246;4.820;2023-05-14T01:16:49;10.17;;;5.03;;
14141;SDS011;7151;52.246;4.820;2023-05-14T01:19:30;7.67;;;5.90;;
14141;SDS011;7151;52.246;4.820;2023-05-14T01:22:05;6.50;;;5.53;;
14141;SDS011;7151;52.246;4.820;2023-05-14T01:24:30;8.60;;;5.30;;
14141;SDS011;7151;52.246;4.820;2023-05-14T01:26:58;8.40;;;5.17;;
14141;SDS011;7151;52.246;4.820;2023-05-14T01:29:30;10.40;;;5.37;;
14141;SDS011;7151;52.246;4.820;2023-05-14T01:31:58;9.03;;;5.00;;
14141;SDS011;7151;52.246;4.820;2023-05-14T01:34:25;8.23;;;5.60;;
14141;SDS011;7151;52.246;4.820;2023-05-14T01:36:54;8.20;;;5.07;;
14141;SDS011;7151;52.246;4.820;2023-05-14T01:39:22;11.50;;;5.90;;
14141;SDS011;7151;52.246;4.820;2023-05-14T01:41:48;7.37;;;5.27;;
14141;SDS011;7151;52.246;4.820;2023-05-14T01:44:15;9.80;;;5.63;;
14141;SDS011;7151;52.246;4.820;2023-05-14T01:46:41;12.90;;;6.00;;
14141;SDS011;7151;52.246;4.820;2023-05-14T01:49:06;8.00;;;5.83;;
14141;SDS011;7151;52.246;4.820;2023-05-14T01:51:32;8.70;;;5.27;;
14141;SDS011;7151;52.246;4.820;2023-05-14T01:53:58;8.93;;;5.30;;
14141;SDS011;7151;52.246;4.820;2023-05-14T01:56:23;11.43;;;6.10;;
14141;SDS011;7151;52.246;4.820;2023-05-14T01:58:49;8.83;;;5.43;;
14141;SDS011;7151;52.246;4.820;2023-05-14T02:01:16;7.87;;;5.63;;
14141;SDS011;7151;52.246;4.820;2023-05-14T02:03:41;7.73;;;5.87;;
14141;SDS011;7151;52.246;4.820;2023-05-14T02:06:07;10.37;;;6.43;;
14141;SDS011;7151;52.246;4.820;2023-05-14T02:08:32;8.00;;;5.93;;
14141;SDS011;7151;52.246;4.820;2023-05-14T02:10:58;9.50;;;5.47;;
14141;SDS011;7151;52.246;4.820;2023-05-14T02:13:24;8.07;;;5.90;;
14141;SDS011;7151;52.246;4.820;2023-05-14T02:15:50;9.40;;;5.13;;
14141;SDS011;7151;52.246;4.820;2023-05-14T02:18:15;10.30;;;5.57;;
14141;SDS011;7151;52.246;4.820;2023-05-14T02:20:41;10.00;;;5.10;;
14141;SDS011;7151;52.246;4.820;2023-05-14T02:23:06;9.87;;;6.53;;
14141;SDS011;7151;52.246;4.820;2023-05-14T02:25:32;8.57;;;5.57;;
14141;SDS011;7151;52.246;4.820;2023-05-14T02:27:58;9.87;;;5.30;;
14141;SDS011;7151;52.246;4.820;2023-05-14T02:30:23;10.20;;;5.93;;
14141;SDS011;7151;52.246;4.820;2023-05-14T02:32:49;7.73;;;5.90;;
14141;SDS011;7151;52.246;4.820;2023-05-14T02:35:15;10.70;;;5.63;;
14141;SDS011;7151;52.246;4.820;2023-05-14T02:37:40;8.87;;;6.30;;
14141;SDS011;7151;52.246;4.820;2023-05-14T02:40:06;10.23;;;6.30;;
14141;SDS011;7151;52.246;4.820;2023-05-14T02:42:33;7.13;;;5.93;;
14141;SDS011;7151;52.246;4.820;2023-05-14T02:44:59;6.30;;;5.13;;
14141;SDS011;7151;52.246;4.820;2023-05-14T02:47:25;9.50;;;5.53;;
14141;SDS011;7151;52.246;4.820;2023-05-14T02:49:50;7.83;;;4.90;;
14141;SDS011;7151;52.246;4.820;2023-05-14T02:52:16;10.93;;;5.80;;
14141;SDS011;7151;52.246;4.820;2023-05-14T02:54:41;8.00;;;6.27;;
14141;SDS011;7151;52.246;4.820;2023-05-14T02:57:07;10.40;;;5.50;;
14141;SDS011;7151;52.246;4.820;2023-05-14T02:59:32;8.00;;;6.47;;
14141;SDS011;7151;52.246;4.820;2023-05-14T03:01:58;8.93;;;5.40;;
14141;SDS011;7151;52.246;4.820;2023-05-14T03:04:23;9.33;;;5.97;;
14141;SDS011;7151;52.246;4.820;2023-05-14T03:06:49;7.90;;;5.07;;
14141;SDS011;7151;52.246;4.820;2023-05-14T03:09:15;9.17;;;5.43;;
14141;SDS011;7151;52.246;4.820;2023-05-14T03:11:40;9.00;;;5.27;;
14141;SDS011;7151;52.246;4.820;2023-05-14T03:14:06;8.27;;;6.07;;
14141;SDS011;7151;52.246;4.820;2023-05-14T03:16:31;7.13;;;5.20;;
14141;SDS011;7151;52.246;4.820;2023-05-14T03:18:57;12.30;;;6.07;;
14141;SDS011;7151;52.246;4.820;2023-05-14T03:21:22;8.83;;;5.30;;
14141;SDS011;7151;52.246;4.820;2023-05-14T03:23:48;8.70;;;4.90;;
14141;SDS011;7151;52.246;4.820;2023-05-14T03:26:13;9.87;;;5.43;;
14141;SDS011;7151;52.246;4.820;2023-05-14T03:28:39;6.70;;;4.80;;
14141;SDS011;7151;52.246;4.820;2023-05-14T03:31:05;7.47;;;5.60;;
14141;SDS011;7151;52.246;4.820;2023-05-14T03:33:30;8.67;;;5.27;;
14141;SDS011;7151;52.246;4.820;2023-05-14T03:35:56;8.37;;;5.37;;
14141;SDS011;7151;52.246;4.820;2023-05-14T03:38:21;11.53;;;5.17;;
14141;SDS011;7151;52.246;4.820;2023-05-14T03:40:47;8.93;;;5.27;;
14141;SDS011;7151;52.246;4.820;2023-05-14T03:43:13;9.40;;;5.33;;
14141;SDS011;7151;52.246;4.820;2023-05-14T03:45:38;6.97;;;4.93;;
14141;SDS011;7151;52.246;4.820;2023-05-14T03:48:04;9.27;;;5.20;;
14141;SDS011;7151;52.246;4.820;2023-05-14T03:50:30;8.80;;;4.97;;
14141;SDS011;7151;52.246;4.820;2023-05-14T03:52:56;14.97;;;5.03;;
14141;SDS011;7151;52.246;4.820;2023-05-14T03:55:21;6.13;;;4.33;;
14141;SDS011;7151;52.246;4.820;2023-05-14T03:57:47;9.17;;;5.23;;
14141;SDS011;7151;52.246;4.820;2023-05-14T04:00:13;8.33;;;5.10;;
14141;SDS011;7151;52.246;4.820;2023-05-14T04:02:39;6.70;;;5.20;;
14141;SDS011;7151;52.246;4.820;2023-05-14T04:05:05;6.57;;;4.77;;
14141;SDS011;7151;52.246;4.820;2023-05-14T04:07:31;8.63;;;6.07;;
14141;SDS011;7151;52.246;4.820;2023-05-14T04:09:56;9.00;;;5.80;;
14141;SDS011;7151;52.246;4.820;2023-05-14T04:12:22;7.20;;;5.20;;
14141;SDS011;7151;52.246;4.820;2023-05-14T04:14:47;9.43;;;5.90;;
14141;SDS011;7151;52.246;4.820;2023-05-14T04:17:13;11.57;;;5.87;;
14141;SDS011;7151;52.246;4.820;2023-05-14T04:19:38;9.17;;;5.20;;
14141;SDS011;7151;52.246;4.820;2023-05-14T04:22:04;9.50;;;5.57;;
14141;SDS011;7151;52.246;4.820;2023-05-14T04:24:30;10.03;;;5.77;;
14141;SDS011;7151;52.246;4.820;2023-05-14T04:26:56;7.53;;;5.40;;
14141;SDS011;7151;52.246;4.820;2023-05-14T04:29:21;7.43;;;5.73;;
14141;SDS011;7151;52.246;4.820;2023-05-14T04:31:48;8.53;;;5.37;;
14141;SDS011;7151;52.246;4.820;2023-05-14T04:34:13;8.50;;;6.27;;
14141;SDS011;7151;52.246;4.820;2023-05-14T04:36:39;8.30;;;6.07;;
14141;SDS011;7151;52.246;4.820;2023-05-14T04:39:05;7.30;;;5.43;;
14141;SDS011;7151;52.246;4.820;2023-05-14T04:41:31;8.83;;;5.50;;
14141;SDS011;7151;52.246;4.820;2023-05-14T04:43:57;9.87;;;5.47;;
14141;SDS011;7151;52.246;4.820;2023-05-14T04:46:25;7.80;;;6.30;;
14141;SDS011;7151;52.246;4.820;2023-05-14T04:48:50;9.93;;;6.80;;
14141;SDS011;7151;52.246;4.820;2023-05-14T04:51:16;7.80;;;5.13;;
14141;SDS011;7151;52.246;4.820;2023-05-14T04:53:42;7.57;;;5.83;;
14141;SDS011;7151;52.246;4.820;2023-05-14T04:56:08;7.93;;;6.43;;
14141;SDS011;7151;52.246;4.820;2023-05-14T04:58:33;10.00;;;5.70;;
14141;SDS011;7151;52.246;4.820;2023-05-14T05:00:59;10.03;;;6.23;;
14141;SDS011;7151;52.246;4.820;2023-05-14T05:03:26;14.00;;;6.07;;
14141;SDS011;7151;52.246;4.820;2023-05-14T05:05:52;9.73;;;6.50;;
14141;SDS011;7151;52.246;4.820;2023-05-14T05:08:17;8.63;;;6.27;;
14141;SDS011;7151;52.246;4.820;2023-05-14T05:10:43;8.53;;;6.03;;
14141;SDS011;7151;52.246;4.820;2023-05-14T05:13:08;7.97;;;5.87;;
14141;SDS011;7151;52.246;4.820;2023-05-14T05:15:34;11.83;;;6.30;;
14141;SDS011;7151;52.246;4.820;2023-05-14T05:18:00;8.33;;;5.53;;
14141;SDS011;7151;52.246;4.820;2023-05-14T05:20:25;9.17;;;5.57;;
14141;SDS011;7151;52.246;4.820;2023-05-14T05:22:52;9.23;;;5.90;;
14141;SDS011;7151;52.246;4.820;2023-05-14T05:25:17;11.73;;;5.77;;
14141;SDS011;7151;52.246;4.820;2023-05-14T05:27:43;12.63;;;5.97;;
14141;SDS011;7151;52.246;4.820;2023-05-14T05:30:09;8.10;;;5.63;;
14141;SDS011;7151;52.246;4.820;2023-05-14T05:32:35;10.93;;;6.37;;
14141;SDS011;7151;52.246;4.820;2023-05-14T05:35:01;8.23;;;5.80;;
14141;SDS011;7151;52.246;4.820;2023-05-14T05:37:27;11.13;;;6.63;;
14141;SDS011;7151;52.246;4.820;2023-05-14T05:39:52;10.47;;;5.83;;
14141;SDS011;7151;52.246;4.820;2023-05-14T05:42:18;12.17;;;6.03;;
14141;SDS011;7151;52.246;4.820;2023-05-14T05:44:43;13.97;;;7.20;;
14141;SDS011;7151;52.246;4.820;2023-05-14T05:47:09;9.23;;;6.97;;
14141;SDS011;7151;52.246;4.820;2023-05-14T05:49:35;8.90;;;6.53;;
14141;SDS011;7151;52.246;4.820;2023-05-14T05:52:01;10.23;;;6.33;;
14141;SDS011;7151;52.246;4.820;2023-05-14T05:54:28;10.57;;;6.23;;
14141;SDS011;7151;52.246;4.820;2023-05-14T05:56:56;9.00;;;5.90;;
14141;SDS011;7151;52.246;4.820;2023-05-14T05:59:22;7.73;;;5.50;;
14141;SDS011;7151;52.246;4.820;2023-05-14T06:01:48;9.70;;;6.70;;
14141;SDS011;7151;52.246;4.820;2023-05-14T06:04:14;8.23;;;6.00;;
14141;SDS011;7151;52.246;4.820;2023-05-14T06:06:40;9.47;;;6.27;;
14141;SDS011;7151;52.246;4.820;2023-05-14T06:09:06;9.00;;;5.80;;
14141;SDS011;7151;52.246;4.820;2023-05-14T06:11:32;8.07;;;5.57;;
14141;SDS011;7151;52.246;4.820;2023-05-14T06:13:58;7.80;;;5.40;;
14141;SDS011;7151;52.246;4.820;2023-05-14T06:16:24;12.63;;;4.93;;
14141;SDS011;7151;52.246;4.820;2023-05-14T06:18:50;8.37;;;5.33;;
14141;SDS011;7151;52.246;4.820;2023-05-14T06:21:16;8.47;;;5.17;;
14141;SDS011;7151;52.246;4.820;2023-05-14T06:23:42;9.40;;;5.13;;
14141;SDS011;7151;52.246;4.820;2023-05-14T06:26:08;8.27;;;4.93;;
14141;SDS011;7151;52.246;4.820;2023-05-14T06:28:34;6.03;;;4.47;;
14141;SDS011;7151;52.246;4.820;2023-05-14T06:30:59;7.00;;;5.23;;
14141;SDS011;7151;52.246;4.820;2023-05-14T06:33:25;10.17;;;4.77;;
14141;SDS011;7151;52.246;4.820;2023-05-14T06:35:55;8.80;;;5.63;;
14141;SDS011;7151;52.246;4.820;2023-05-14T06:38:24;12.03;;;5.50;;
14141;SDS011;7151;52.246;4.820;2023-05-14T06:40:50;5.53;;;4.60;;
14141;SDS011;7151;52.246;4.820;2023-05-14T06:43:17;10.30;;;5.00;;
14141;SDS011;7151;52.246;4.820;2023-05-14T06:45:42;8.90;;;5.33;;
14141;SDS011;7151;52.246;4.820;2023-05-14T06:48:08;6.73;;;4.93;;
14141;SDS011;7151;52.246;4.820;2023-05-14T06:50:34;9.17;;;4.13;;
14141;SDS011;7151;52.246;4.820;2023-05-14T06:52:59;6.37;;;4.60;;
14141;SDS011;7151;52.246;4.820;2023-05-14T06:55:25;6.70;;;4.83;;
14141;SDS011;7151;52.246;4.820;2023-05-14T06:57:51;8.03;;;4.57;;
14141;SDS011;7151;52.246;4.820;2023-05-14T07:00:16;7.40;;;4.90;;
14141;SDS011;7151;52.246;4.820;2023-05-14T07:02:42;7.00;;;4.97;;
14141;SDS011;7151;52.246;4.820;2023-05-14T07:05:09;7.97;;;5.30;;
14141;SDS011;7151;52.246;4.820;2023-05-14T07:07:34;6.53;;;4.83;;
14141;SDS011;7151;52.246;4.820;2023-05-14T07:10:00;5.63;;;5.03;;
14141;SDS011;7151;52.246;4.820;2023-05-14T07:12:26;4.97;;;4.23;;
14141;SDS011;7151;52.246;4.820;2023-05-14T07:14:51;9.37;;;4.53;;
14141;SDS011;7151;52.246;4.820;2023-05-14T07:17:17;4.97;;;3.93;;
14141;SDS011;7151;52.246;4.820;2023-05-14T07:19:42;6.30;;;4.30;;
14141;SDS011;7151;52.246;4.820;2023-05-14T07:22:08;7.37;;;4.67;;
14141;SDS011;7151;52.246;4.820;2023-05-14T07:24:33;6.53;;;4.00;;
14141;SDS011;7151;52.246;4.820;2023-05-14T07:26:59;10.50;;;4.93;;
14141;SDS011;7151;52.246;4.820;2023-05-14T07:29:25;7.87;;;4.20;;
14141;SDS011;7151;52.246;4.820;2023-05-14T07:31:51;6.17;;;4.10;;
14141;SDS011;7151;52.246;4.820;2023-05-14T07:34:17;7.17;;;4.90;;
14141;SDS011;7151;52.246;4.820;2023-05-14T07:36:43;5.67;;;3.23;;
14141;SDS011;7151;52.246;4.820;2023-05-14T07:39:09;5.40;;;4.10;;
14141;SDS011;7151;52.246;4.820;2023-05-14T07:41:34;4.30;;;3.90;;
14141;SDS011;7151;52.246;4.820;2023-05-14T07:44:00;9.33;;;4.23;;
14141;SDS011;7151;52.246;4.820;2023-05-14T07:46:25;5.10;;;3.73;;
14141;SDS011;7151;52.246;4.820;2023-05-14T07:48:51;5.80;;;4.07;;
14141;SDS011;7151;52.246;4.820;2023-05-14T07:51:17;5.83;;;4.07;;
14141;SDS011;7151;52.246;4.820;2023-05-14T07:53:42;4.83;;;3.33;;
14141;SDS011;7151;52.246;4.820;2023-05-14T07:56:08;5.73;;;4.57;;
14141;SDS011;7151;52.246;4.820;2023-05-14T07:58:33;6.77;;;3.83;;
14141;SDS011;7151;52.246;4.820;2023-05-14T08:00:59;5.13;;;3.57;;
14141;SDS011;7151;52.246;4.820;2023-05-14T08:03:27;7.03;;;4.17;;
14141;SDS011;7151;52.246;4.820;2023-05-14T08:05:53;5.27;;;4.17;;
14141;SDS011;7151;52.246;4.820;2023-05-14T08:08:18;5.80;;;4.23;;
14141;SDS011;7151;52.246;4.820;2023-05-14T08:10:44;4.90;;;4.40;;
14141;SDS011;7151;52.246;4.820;2023-05-14T08:13:10;6.27;;;4.77;;
14141;SDS011;7151;52.246;4.820;2023-05-14T08:15:35;8.00;;;5.13;;
14141;SDS011;7151;52.246;4.820;2023-05-14T08:18:01;8.30;;;4.13;;
14141;SDS011;7151;52.246;4.820;2023-05-14T08:20:28;6.50;;;4.43;;
14141;SDS011;7151;52.246;4.820;2023-05-14T08:22:55;4.97;;;4.07;;
14141;SDS011;7151;52.246;4.820;2023-05-14T08:25:21;5.83;;;3.43;;
14141;SDS011;7151;52.246;4.820;2023-05-14T08:27:47;5.83;;;4.20;;
14141;SDS011;7151;52.246;4.820;2023-05-14T08:30:13;5.23;;;3.93;;
14141;SDS011;7151;52.246;4.820;2023-05-14T08:32:39;5.43;;;3.23;;
14141;SDS011;7151;52.246;4.820;2023-05-14T08:35:05;6.30;;;3.83;;
14141;SDS011;7151;52.246;4.820;2023-05-14T08:37:31;4.13;;;3.67;;
14141;SDS011;7151;52.246;4.820;2023-05-14T08:39:56;9.10;;;4.70;;
14141;SDS011;7151;52.246;4.820;2023-05-14T08:42:22;5.13;;;3.83;;
14141;SDS011;7151;52.246;4.820;2023-05-14T08:44:52;5.67;;;3.60;;
14141;SDS011;7151;52.246;4.820;2023-05-14T08:47:23;6.20;;;3.60;;
14141;SDS011;7151;52.246;4.820;2023-05-14T08:50:03;4.90;;;3.43;;
14141;SDS011;7151;52.246;4.820;2023-05-14T08:52:30;6.07;;;3.70;;
14141;SDS011;7151;52.246;4.820;2023-05-14T08:55:00;4.23;;;3.43;;
14141;SDS011;7151;52.246;4.820;2023-05-14T08:57:29;5.87;;;3.87;;
14141;SDS011;7151;52.246;4.820;2023-05-14T08:59:55;4.03;;;3.23;;
14141;SDS011;7151;52.246;4.820;2023-05-14T09:02:28;5.43;;;3.47;;
14141;SDS011;7151;52.246;4.820;2023-05-14T09:04:55;4.57;;;3.20;;
14141;SDS011;7151;52.246;4.820;2023-05-14T09:07:22;6.80;;;3.67;;
14141;SDS011;7151;52.246;4.820;2023-05-14T09:09:48;4.43;;;3.57;;
14141;SDS011;7151;52.246;4.820;2023-05-14T09:12:15;3.63;;;3.00;;
14141;SDS011;7151;52.246;4.820;2023-05-14T09:14:40;8.20;;;3.47;;
14141;SDS011;7151;52.246;4.820;2023-05-14T09:17:06;5.43;;;3.47;;
14141;SDS011;7151;52.246;4.820;2023-05-14T09:19:32;5.57;;;3.30;;
14141;SDS011;7151;52.246;4.820;2023-05-14T09:21:58;4.93;;;3.20;;
14141;SDS011;7151;52.246;4.820;2023-05-14T09:24:24;3.70;;;3.10;;
14141;SDS011;7151;52.246;4.820;2023-05-14T09:26:52;4.77;;;3.43;;
14141;SDS011;7151;52.246;4.820;2023-05-14T09:29:20;4.47;;;3.77;;
14141;SDS011;7151;52.246;4.820;2023-05-14T09:31:48;5.70;;;3.90;;
14141;SDS011;7151;52.246;4.820;2023-05-14T09:34:31;5.03;;;3.33;;
14141;SDS011;7151;52.246;4.820;2023-05-14T09:37:04;5.77;;;3.30;;
14141;SDS011;7151;52.246;4.820;2023-05-14T09:39:34;6.40;;;3.40;;
14141;SDS011;7151;52.246;4.820;2023-05-14T09:42:02;7.33;;;3.53;;
14141;SDS011;7151;52.246;4.820;2023-05-14T09:44:28;4.20;;;3.10;;
14141;SDS011;7151;52.246;4.820;2023-05-14T09:46:54;3.30;;;3.00;;
14141;SDS011;7151;52.246;4.820;2023-05-14T09:49:20;3.30;;;3.00;;
14141;SDS011;7151;52.246;4.820;2023-05-14T09:51:47;4.97;;;3.00;;
14141;SDS011;7151;52.246;4.820;2023-05-14T09:54:13;5.57;;;3.07;;
14141;SDS011;7151;52.246;4.820;2023-05-14T09:56:38;3.53;;;3.23;;
14141;SDS011;7151;52.246;4.820;2023-05-14T09:59:04;6.13;;;3.03;;
14141;SDS011;7151;52.246;4.820;2023-05-14T10:01:30;4.40;;;3.17;;
14141;SDS011;7151;52.246;4.820;2023-05-14T10:03:57;6.47;;;3.57;;
14141;SDS011;7151;52.246;4.820;2023-05-14T10:06:24;6.97;;;3.40;;
14141;SDS011;7151;52.246;4.820;2023-05-14T10:08:53;6.13;;;2.83;;
14141;SDS011;7151;52.246;4.820;2023-05-14T10:11:21;3.60;;;3.30;;
14141;SDS011;7151;52.246;4.820;2023-05-14T10:13:54;4.07;;;3.50;;
14141;SDS011;7151;52.246;4.820;2023-05-14T10:16:30;4.23;;;3.10;;
14141;SDS011;7151;52.246;4.820;2023-05-14T10:19:07;5.27;;;3.07;;
14141;SDS011;7151;52.246;4.820;2023-05-14T10:21:37;8.07;;;3.07;;
14141;SDS011;7151;52.246;4.820;2023-05-14T10:24:05;7.47;;;4.27;;
14141;SDS011;7151;52.246;4.820;2023-05-14T10:26:33;4.50;;;3.50;;
14141;SDS011;7151;52.246;4.820;2023-05-14T10:29:04;3.23;;;2.93;;
14141;SDS011;7151;52.246;4.820;2023-05-14T10:31:49;5.23;;;3.50;;
14141;SDS011;7151;52.246;4.820;2023-05-14T10:34:33;8.77;;;3.77;;
14141;SDS011;7151;52.246;4.820;2023-05-14T10:37:08;7.53;;;3.33;;
14141;SDS011;7151;52.246;4.820;2023-05-14T10:39:48;3.13;;;2.70;;
14141;SDS011;7151;52.246;4.820;2023-05-14T10:42:25;4.23;;;3.30;;
14141;SDS011;7151;52.246;4.820;2023-05-14T10:44:57;4.73;;;3.33;;
14141;SDS011;7151;52.246;4.820;2023-05-14T10:47:26;6.43;;;3.13;;
14141;SDS011;7151;52.246;4.820;2023-05-14T10:49:54;6.30;;;3.17;;
14141;SDS011;7151;52.246;4.820;2023-05-14T10:52:21;4.13;;;3.40;;
14141;SDS011;7151;52.246;4.820;2023-05-14T10:54:49;6.07;;;3.10;;
14141;SDS011;7151;52.246;4.820;2023-05-14T10:57:16;4.90;;;2.90;;
14141;SDS011;7151;52.246;4.820;2023-05-14T10:59:43;6.23;;;2.90;;
14141;SDS011;7151;52.246;4.820;2023-05-14T11:02:22;4.77;;;2.80;;
14141;SDS011;7151;52.246;4.820;2023-05-14T11:05:16;4.60;;;2.73;;
14141;SDS011;7151;52.246;4.820;2023-05-14T11:07:46;3.93;;;2.90;;
14141;SDS011;7151;52.246;4.820;2023-05-14T11:10:14;3.87;;;3.17;;
14141;SDS011;7151;52.246;4.820;2023-05-14T11:12:41;3.93;;;2.53;;
14141;SDS011;7151;52.246;4.820;2023-05-14T11:15:09;8.60;;;3.37;;
14141;SDS011;7151;52.246;4.820;2023-05-14T11:17:37;9.57;;;3.07;;
14141;SDS011;7151;52.246;4.820;2023-05-14T11:20:04;6.93;;;3.10;;
14141;SDS011;7151;52.246;4.820;2023-05-14T11:22:31;5.17;;;3.37;;
14141;SDS011;7151;52.246;4.820;2023-05-14T11:24:57;3.77;;;2.70;;
14141;SDS011;7151;52.246;4.820;2023-05-14T11:27:23;4.70;;;2.93;;
14141;SDS011;7151;52.246;4.820;2023-05-14T11:29:48;6.43;;;3.57;;
14141;SDS011;7151;52.246;4.820;2023-05-14T11:32:15;3.47;;;2.70;;
14141;SDS011;7151;52.246;4.820;2023-05-14T11:34:42;5.13;;;2.97;;
14141;SDS011;7151;52.246;4.820;2023-05-14T11:37:09;10.33;;;3.00;;
14141;SDS011;7151;52.246;4.820;2023-05-14T11:39:36;5.63;;;2.90;;
14141;SDS011;7151;52.246;4.820;2023-05-14T11:42:03;4.13;;;2.70;;
14141;SDS011;7151;52.246;4.820;2023-05-14T11:44:30;9.47;;;3.10;;
14141;SDS011;7151;52.246;4.820;2023-05-14T11:46:57;3.30;;;2.70;;
14141;SDS011;7151;52.246;4.820;2023-05-14T11:49:23;3.17;;;2.57;;
14141;SDS011;7151;52.246;4.820;2023-05-14T11:51:50;5.37;;;3.47;;
14141;SDS011;7151;52.246;4.820;2023-05-14T11:54:28;4.90;;;3.23;;
14141;SDS011;7151;52.246;4.820;2023-05-14T11:56:55;6.13;;;2.47;;
14141;SDS011;7151;52.246;4.820;2023-05-14T11:59:23;3.10;;;2.77;;
14141;SDS011;7151;52.246;4.820;2023-05-14T12:01:50;4.73;;;2.97;;
14141;SDS011;7151;52.246;4.820;2023-05-14T12:04:17;4.17;;;2.87;;
14141;SDS011;7151;52.246;4.820;2023-05-14T12:06:46;6.57;;;2.80;;
14141;SDS011;7151;52.246;4.820;2023-05-14T12:09:18;4.23;;;2.60;;
14141;SDS011;7151;52.246;4.820;2023-05-14T12:11:45;5.53;;;2.63;;
14141;SDS011;7151;52.246;4.820;2023-05-14T12:14:13;4.47;;;2.70;;
14141;SDS011;7151;52.246;4.820;2023-05-14T12:16:40;4.90;;;3.27;;
14141;SDS011;7151;52.246;4.820;2023-05-14T12:19:08;7.80;;;2.70;;
14141;SDS011;7151;52.246;4.820;2023-05-14T12:21:35;3.67;;;2.23;;
14141;SDS011;7151;52.246;4.820;2023-05-14T12:24:02;3.07;;;2.57;;
14141;SDS011;7151;52.246;4.820;2023-05-14T12:26:31;3.53;;;2.93;;
14141;SDS011;7151;52.246;4.820;2023-05-14T12:29:01;6.17;;;2.73;;
14141;SDS011;7151;52.246;4.820;2023-05-14T12:31:30;4.07;;;2.70;;
14141;SDS011;7151;52.246;4.820;2023-05-14T12:33:57;4.00;;;2.70;;
14141;SDS011;7151;52.246;4.820;2023-05-14T12:36:23;6.13;;;2.70;;
14141;SDS011;7151;52.246;4.820;2023-05-14T12:38:49;5.10;;;2.67;;
14141;SDS011;7151;52.246;4.820;2023-05-14T12:41:20;2.33;;;2.07;;
14141;SDS011;7151;52.246;4.820;2023-05-14T12:43:46;4.03;;;2.73;;
14141;SDS011;7151;52.246;4.820;2023-05-14T12:46:13;4.27;;;2.60;;
14141;SDS011;7151;52.246;4.820;2023-05-14T12:48:39;5.80;;;2.60;;
14141;SDS011;7151;52.246;4.820;2023-05-14T12:51:04;4.40;;;3.03;;
14141;SDS011;7151;52.246;4.820;2023-05-14T12:53:30;5.10;;;3.50;;
14141;SDS011;7151;52.246;4.820;2023-05-14T12:55:56;2.77;;;2.37;;
14141;SDS011;7151;52.246;4.820;2023-05-14T12:58:21;5.30;;;3.27;;
14141;SDS011;7151;52.246;4.820;2023-05-14T13:00:47;5.40;;;2.87;;
14141;SDS011;7151;52.246;4.820;2023-05-14T13:03:12;4.60;;;3.17;;
14141;SDS011;7151;52.246;4.820;2023-05-14T13:05:38;3.10;;;2.60;;
14141;SDS011;7151;52.246;4.820;2023-05-14T13:08:03;5.23;;;3.13;;
14141;SDS011;7151;52.246;4.820;2023-05-14T13:10:29;4.43;;;2.87;;
14141;SDS011;7151;52.246;4.820;2023-05-14T13:12:54;2.80;;;2.60;;
14141;SDS011;7151;52.246;4.820;2023-05-14T13:15:20;5.37;;;2.43;;
14141;SDS011;7151;52.246;4.820;2023-05-14T13:17:46;4.50;;;2.40;;
14141;SDS011;7151;52.246;4.820;2023-05-14T13:20:12;5.13;;;2.80;;
14141;SDS011;7151;52.246;4.820;2023-05-14T13:22:38;4.83;;;3.27;;
14141;SDS011;7151;52.246;4.820;2023-05-14T13:25:04;2.93;;;2.50;;
14141;SDS011;7151;52.246;4.820;2023-05-14T13:27:30;4.67;;;2.30;;
14141;SDS011;7151;52.246;4.820;2023-05-14T13:29:56;5.67;;;2.50;;
14141;SDS011;7151;52.246;4.820;2023-05-14T13:32:23;4.67;;;2.93;;
14141;SDS011;7151;52.246;4.820;2023-05-14T13:34:49;4.10;;;2.57;;
14141;SDS011;7151;52.246;4.820;2023-05-14T13:37:15;2.77;;;2.57;;
14141;SDS011;7151;52.246;4.820;2023-05-14T13:39:40;3.03;;;2.70;;
14141;SDS011;7151;52.246;4.820;2023-05-14T13:42:06;5.77;;;3.00;;
14141;SDS011;7151;52.246;4.820;2023-05-14T13:44:31;3.13;;;2.83;;
14141;SDS011;7151;52.246;4.820;2023-05-14T13:46:57;3.73;;;2.47;;
14141;SDS011;7151;52.246;4.820;2023-05-14T13:49:23;5.80;;;3.37;;
14141;SDS011;7151;52.246;4.820;2023-05-14T13:51:48;4.13;;;2.90;;
14141;SDS011;7151;52.246;4.820;2023-05-14T13:54:14;7.60;;;3.00;;
14141;SDS011;7151;52.246;4.820;2023-05-14T13:56:39;3.90;;;3.17;;
14141;SDS011;7151;52.246;4.820;2023-05-14T13:59:05;4.23;;;2.87;;
14141;SDS011;7151;52.246;4.820;2023-05-14T14:01:31;4.17;;;2.77;;
14141;SDS011;7151;52.246;4.820;2023-05-14T14:03:56;5.80;;;2.90;;
14141;SDS011;7151;52.246;4.820;2023-05-14T14:06:22;8.13;;;4.27;;
14141;SDS011;7151;52.246;4.820;2023-05-14T14:08:47;3.87;;;2.97;;
14141;SDS011;7151;52.246;4.820;2023-05-14T14:11:13;5.97;;;3.47;;
14141;SDS011;7151;52.246;4.820;2023-05-14T14:13:39;5.93;;;3.57;;
14141;SDS011;7151;52.246;4.820;2023-05-14T14:16:05;9.20;;;3.80;;
14141;SDS011;7151;52.246;4.820;2023-05-14T14:18:31;7.77;;;3.73;;
14141;SDS011;7151;52.246;4.820;2023-05-14T14:20:56;5.77;;;3.90;;
14141;SDS011;7151;52.246;4.820;2023-05-14T14:23:22;5.27;;;3.60;;
14141;SDS011;7151;52.246;4.820;2023-05-14T14:25:48;5.07;;;3.30;;
14141;SDS011;7151;52.246;4.820;2023-05-14T14:28:13;4.53;;;3.53;;
14141;SDS011;7151;52.246;4.820;2023-05-14T14:30:39;5.70;;;3.90;;
14141;SDS011;7151;52.246;4.820;2023-05-14T14:33:05;7.47;;;3.73;;
14141;SDS011;7151;52.246;4.820;2023-05-14T14:35:30;8.00;;;3.17;;
14141;SDS011;7151;52.246;4.820;2023-05-14T14:37:57;11.17;;;3.47;;
14141;SDS011;7151;52.246;4.820;2023-05-14T14:40:22;7.83;;;3.43;;
14141;SDS011;7151;52.246;4.820;2023-05-14T14:42:50;5.30;;;3.13;;
14141;SDS011;7151;52.246;4.820;2023-05-14T14:45:15;7.67;;;2.57;;
14141;SDS011;7151;52.246;4.820;2023-05-14T14:47:44;4.20;;;3.10;;
14141;SDS011;7151;52.246;4.820;2023-05-14T14:50:13;4.47;;;3.07;;
14141;SDS011;7151;52.246;4.820;2023-05-14T14:52:39;7.70;;;2.60;;
14141;SDS011;7151;52.246;4.820;2023-05-14T14:55:07;6.83;;;2.97;;
14141;SDS011;7151;52.246;4.820;2023-05-14T14:57:34;5.67;;;3.30;;
14141;SDS011;7151;52.246;4.820;2023-05-14T14:59:59;7.43;;;3.53;;
14141;SDS011;7151;52.246;4.820;2023-05-14T15:02:25;7.33;;;3.17;;